createdAt,value
2023-05-09T00:00:46.239Z,81.70
2023-05-09T00:03:14.429Z,81.70
2023-05-09T00:05:42.005Z,81.80
2023-05-09T00:08:09.131Z,81.90
2023-05-09T00:10:36.749Z,81.90
2023-05-09T00:13:04.135Z,81.90
2023-05-09T00:15:32.094Z,81.90
2023-05-09T00:17:59.445Z,82.00
2023-05-09T00:20:26.469Z,82.00
2023-05-09T00:22:53.301Z,82.00
2023-05-09T00:25:20.325Z,82.00
2023-05-09T00:27:47.383Z,82.00
2023-05-09T00:30:14.168Z,82.00
2023-05-09T00:32:41.791Z,81.90
2023-05-09T00:35:10.352Z,81.80
2023-05-09T00:37:37.407Z,82.00
2023-05-09T00:40:06.381Z,82.00
2023-05-09T00:42:33.617Z,82.00
2023-05-09T00:45:00.615Z,82.00
2023-05-09T00:47:29.569Z,82.10
2023-05-09T00:49:57.245Z,82.10
2023-05-09T00:52:28.033Z,82.30
2023-05-09T00:54:55.849Z,82.30
2023-05-09T00:57:23.411Z,82.40
2023-05-09T00:59:50.610Z,82.40
2023-05-09T01:02:18.206Z,82.50
2023-05-09T01:04:48.472Z,82.60
2023-05-09T01:07:46.015Z,82.80
2023-05-09T01:10:28.009Z,82.90
2023-05-09T01:13:17.241Z,82.90
2023-05-09T01:15:53.887Z,83.00
2023-05-09T01:18:34.711Z,83.00
2023-05-09T01:21:07.762Z,83.10
2023-05-09T01:23:37.265Z,83.20
2023-05-09T01:26:06.434Z,83.20
2023-05-09T01:29:11.121Z,83.30
2023-05-09T01:31:41.934Z,83.40
2023-05-09T01:34:11.229Z,83.50
2023-05-09T01:36:42.263Z,83.60
2023-05-09T01:39:12.658Z,83.50
2023-05-09T01:41:40.012Z,83.60
2023-05-09T01:44:11.273Z,83.60
2023-05-09T01:46:39.243Z,83.70
2023-05-09T01:49:09.230Z,83.60
2023-05-09T01:51:37.564Z,83.80
2023-05-09T01:54:05.886Z,83.80
2023-05-09T01:56:33.147Z,83.70
2023-05-09T01:59:02.244Z,83.70
2023-05-09T02:01:30.463Z,83.70
2023-05-09T02:03:57.964Z,83.70
2023-05-09T02:06:25.489Z,83.80
2023-05-09T02:08:52.529Z,83.80
2023-05-09T02:11:19.377Z,83.90
2023-05-09T02:13:46.223Z,84.00
2023-05-09T02:16:13.324Z,84.00
2023-05-09T02:18:40.098Z,84.00
2023-05-09T02:21:07.151Z,84.10
2023-05-09T02:23:34.805Z,84.10
2023-05-09T02:26:02.321Z,84.10
2023-05-09T02:28:30.547Z,84.10
2023-05-09T02:31:00.386Z,84.10
2023-05-09T02:33:28.118Z,84.30
2023-05-09T02:35:56.449Z,84.20
2023-05-09T02:38:24.122Z,84.20
2023-05-09T02:40:52.700Z,84.10
2023-05-09T02:43:19.689Z,84.10
2023-05-09T02:45:46.598Z,84.20
2023-05-09T02:48:13.734Z,84.20
2023-05-09T02:50:43.400Z,84.10
2023-05-09T02:53:10.229Z,84.00
2023-05-09T02:55:37.019Z,83.90
2023-05-09T02:58:13.261Z,83.90
2023-05-09T03:00:42.176Z,84.00
2023-05-09T03:03:09.424Z,84.00
2023-05-09T03:05:36.590Z,84.10
2023-05-09T03:08:03.795Z,84.30
2023-05-09T03:10:30.729Z,84.30
2023-05-09T03:12:57.543Z,84.50
2023-05-09T03:15:24.544Z,84.50
2023-05-09T03:17:51.770Z,84.60
2023-05-09T03:20:18.881Z,84.70
2023-05-09T03:22:46.066Z,84.80
2023-05-09T03:25:13.328Z,84.90
2023-05-09T03:27:40.502Z,84.90
2023-05-09T03:30:07.871Z,84.90
2023-05-09T03:32:34.728Z,85.10
2023-05-09T03:35:01.505Z,85.10
2023-05-09T03:37:28.406Z,85.20
2023-05-09T03:39:55.625Z,85.20
2023-05-09T03:42:23.010Z,85.20
2023-05-09T03:44:49.852Z,85.80
2023-05-09T03:47:16.854Z,85.30
2023-05-09T03:49:43.761Z,85.40
2023-05-09T03:52:11.210Z,85.40
2023-05-09T03:54:37.994Z,85.40
2023-05-09T03:57:04.867Z,85.50
2023-05-09T03:59:31.764Z,85.40
2023-05-09T04:01:58.713Z,85.50
2023-05-09T04:04:25.884Z,85.40
2023-05-09T04:06:52.969Z,85.30
2023-05-09T04:09:19.885Z,85.50
2023-05-09T04:11:46.822Z,85.60
2023-05-09T04:14:13.635Z,85.50
2023-05-09T04:16:40.624Z,85.50
2023-05-09T04:19:07.528Z,85.50
2023-05-09T04:21:34.393Z,85.50
2023-05-09T04:24:01.311Z,85.50
2023-05-09T04:26:28.415Z,85.60
2023-05-09T04:28:55.404Z,85.60
2023-05-09T04:31:23.172Z,85.70
2023-05-09T04:33:50.557Z,85.80
2023-05-09T04:36:17.352Z,85.80
2023-05-09T04:38:44.234Z,85.90
2023-05-09T04:41:11.420Z,86.00
2023-05-09T04:43:38.569Z,86.00
2023-05-09T04:46:05.721Z,86.00
2023-05-09T04:48:32.996Z,86.20
2023-05-09T04:51:00.039Z,86.20
2023-05-09T04:53:28.540Z,86.30
2023-05-09T04:55:56.297Z,86.30
2023-05-09T04:58:23.544Z,86.30
2023-05-09T05:00:50.345Z,86.40
2023-05-09T05:03:18.013Z,86.60
2023-05-09T05:05:44.925Z,86.60
2023-05-09T05:08:15.347Z,86.60
2023-05-09T05:10:42.007Z,86.70
2023-05-09T05:13:08.762Z,86.90
2023-05-09T05:15:35.689Z,86.90
2023-05-09T05:18:02.525Z,86.90
2023-05-09T05:20:29.484Z,86.90
2023-05-09T05:22:56.644Z,86.90
2023-05-09T05:25:23.779Z,87.00
2023-05-09T05:27:50.804Z,87.00
2023-05-09T05:30:17.769Z,87.00
2023-05-09T05:32:45.143Z,87.20
2023-05-09T05:35:12.466Z,87.20
2023-05-09T05:37:40.355Z,87.30
2023-05-09T05:40:08.076Z,87.40
2023-05-09T05:42:35.018Z,87.40
2023-05-09T05:45:04.544Z,87.50
2023-05-09T05:47:35.562Z,87.40
2023-05-09T05:50:04.780Z,87.50
2023-05-09T05:52:31.899Z,87.50
2023-05-09T05:54:58.844Z,87.40
2023-05-09T05:57:25.785Z,87.20
2023-05-09T05:59:52.580Z,87.10
2023-05-09T06:02:19.616Z,86.90
2023-05-09T06:04:46.384Z,86.80
2023-05-09T06:07:14.226Z,86.70
2023-05-09T06:09:41.350Z,86.50
2023-05-09T06:12:08.230Z,86.20
2023-05-09T06:14:34.980Z,86.10
2023-05-09T06:17:02.100Z,85.90
2023-05-09T06:19:28.955Z,85.80
2023-05-09T06:21:56.158Z,85.70
2023-05-09T06:24:34.573Z,85.50
2023-05-09T06:27:03.521Z,85.30
2023-05-09T06:29:30.779Z,85.30
2023-05-09T06:31:57.625Z,85.10
2023-05-09T06:34:24.563Z,84.90
2023-05-09T06:36:51.469Z,84.80
2023-05-09T06:39:18.602Z,84.60
2023-05-09T06:41:45.788Z,84.50
2023-05-09T06:44:12.637Z,84.40
2023-05-09T06:46:39.467Z,84.30
2023-05-09T06:49:06.450Z,84.20
2023-05-09T06:51:33.554Z,84.10
2023-05-09T06:54:00.342Z,84.10
2023-05-09T06:56:27.189Z,84.00
2023-05-09T06:58:54.428Z,84.00
2023-05-09T07:01:21.409Z,83.90
2023-05-09T07:03:48.544Z,83.70
2023-05-09T07:06:15.872Z,83.60
2023-05-09T07:08:42.671Z,83.50
2023-05-09T07:11:09.410Z,83.50
2023-05-09T07:13:36.958Z,83.50
2023-05-09T07:16:04.099Z,83.40
2023-05-09T07:18:31.150Z,83.40
2023-05-09T07:20:57.968Z,83.50
2023-05-09T07:23:26.153Z,83.60
2023-05-09T07:25:59.223Z,83.60
2023-05-09T07:28:26.141Z,83.30
2023-05-09T07:30:55.459Z,83.40
2023-05-09T07:33:22.461Z,83.50
2023-05-09T07:35:49.669Z,83.50
2023-05-09T07:38:16.519Z,83.50
2023-05-09T07:40:43.518Z,83.60
2023-05-09T07:43:10.509Z,83.60
2023-05-09T07:45:37.559Z,83.60
2023-05-09T07:48:05.053Z,83.60
2023-05-09T07:50:31.862Z,83.60
2023-05-09T07:53:00.048Z,83.50
2023-05-09T07:55:26.851Z,83.60
2023-05-09T07:57:53.691Z,83.80
2023-05-09T08:00:23.911Z,83.80
2023-05-09T08:02:51.911Z,83.80
2023-05-09T08:05:19.579Z,84.00
2023-05-09T08:07:46.554Z,84.00
2023-05-09T08:10:13.660Z,84.10
2023-05-09T08:12:40.745Z,84.00
2023-05-09T08:15:07.952Z,84.00
2023-05-09T08:17:34.886Z,84.20
2023-05-09T08:20:01.700Z,84.40
2023-05-09T08:22:28.548Z,84.50
2023-05-09T08:24:55.364Z,84.40
2023-05-09T08:27:22.099Z,84.50
2023-05-09T08:29:48.847Z,84.60
2023-05-09T08:32:15.784Z,84.50
2023-05-09T08:34:42.580Z,84.50
2023-05-09T08:37:09.437Z,84.50
2023-05-09T08:39:36.451Z,84.60
2023-05-09T08:42:03.585Z,84.40
2023-05-09T08:44:31.470Z,84.40
2023-05-09T08:47:04.439Z,84.30
2023-05-09T08:49:32.065Z,84.20
2023-05-09T08:51:59.710Z,84.30
2023-05-09T08:54:27.151Z,84.30
2023-05-09T08:56:54.172Z,84.30
2023-05-09T08:59:22.341Z,84.40
2023-05-09T09:01:49.599Z,84.70
2023-05-09T09:04:16.648Z,84.80
2023-05-09T09:06:43.994Z,84.90
2023-05-09T09:09:13.052Z,85.00
2023-05-09T09:11:40.949Z,84.80
2023-05-09T09:14:20.390Z,84.80
2023-05-09T09:16:49.047Z,84.90
2023-05-09T09:19:18.100Z,85.00
2023-05-09T09:21:47.655Z,85.00
2023-05-09T09:24:19.033Z,85.00
2023-05-09T09:26:48.384Z,85.00
2023-05-09T09:29:17.017Z,85.00
2023-05-09T09:31:48.282Z,84.90
2023-05-09T09:34:22.836Z,84.80
2023-05-09T09:36:50.311Z,84.90
2023-05-09T09:39:17.226Z,84.90
2023-05-09T09:41:46.727Z,84.90
2023-05-09T09:44:16.146Z,85.00
2023-05-09T09:46:50.565Z,85.10
2023-05-09T09:49:19.765Z,85.10
2023-05-09T09:51:57.226Z,85.10
2023-05-09T09:54:27.806Z,85.00
2023-05-09T09:56:55.456Z,84.90
2023-05-09T09:59:25.888Z,84.80
2023-05-09T10:02:08.007Z,84.90
2023-05-09T10:04:37.316Z,84.80
2023-05-09T10:07:06.340Z,84.80
2023-05-09T10:09:34.914Z,84.70
2023-05-09T10:12:07.042Z,85.00
2023-05-09T10:14:35.635Z,85.20
2023-05-09T10:17:05.438Z,85.10
2023-05-09T10:19:32.773Z,85.10
2023-05-09T10:22:04.532Z,85.30
2023-05-09T10:24:39.980Z,85.50
2023-05-09T10:27:11.585Z,85.50
2023-05-09T10:29:57.482Z,85.50
2023-05-09T10:32:45.888Z,85.50
2023-05-09T10:35:17.367Z,85.60
2023-05-09T10:37:46.525Z,85.60
2023-05-09T10:40:16.622Z,85.60
2023-05-09T10:42:44.471Z,85.70
2023-05-09T10:45:12.809Z,85.70
2023-05-09T10:47:44.471Z,85.80
2023-05-09T10:50:13.214Z,86.00
2023-05-09T10:53:05.314Z,86.10
2023-05-09T10:55:47.606Z,86.10
2023-05-09T10:58:21.793Z,86.00
2023-05-09T11:00:50.711Z,86.10
2023-05-09T11:03:19.996Z,86.20
2023-05-09T11:05:49.142Z,86.20
2023-05-09T11:08:26.845Z,86.20
2023-05-09T11:10:55.598Z,86.10
2023-05-09T11:13:24.610Z,86.10
2023-05-09T11:16:00.780Z,86.10
2023-05-09T11:18:32.795Z,86.00
2023-05-09T11:21:07.017Z,85.90
2023-05-09T11:23:33.941Z,85.80
2023-05-09T11:26:08.615Z,85.90
2023-05-09T11:28:37.950Z,85.80
2023-05-09T11:31:12.361Z,85.90
2023-05-09T11:33:40.296Z,85.90
2023-05-09T11:36:30.170Z,85.90
2023-05-09T11:39:25.305Z,85.90
2023-05-09T11:41:53.109Z,85.90
2023-05-09T11:44:23.037Z,85.90
2023-05-09T11:46:50.479Z,85.90
2023-05-09T11:49:19.469Z,85.90
2023-05-09T11:51:46.369Z,85.80
2023-05-09T11:54:14.901Z,85.80
2023-05-09T11:56:42.154Z,85.60
2023-05-09T11:59:10.704Z,85.40
2023-05-09T12:01:37.723Z,85.40
2023-05-09T12:04:07.693Z,85.20
2023-05-09T12:06:34.619Z,85.30
2023-05-09T12:09:01.529Z,85.30
2023-05-09T12:11:32.292Z,85.40
2023-05-09T12:13:59.354Z,85.50
2023-05-09T12:16:26.269Z,85.50
2023-05-09T12:18:53.630Z,85.60
2023-05-09T12:21:21.707Z,85.90
2023-05-09T12:23:51.314Z,86.00
2023-05-09T12:26:22.071Z,86.10
2023-05-09T12:28:49.008Z,86.10
2023-05-09T12:31:17.205Z,86.10
2023-05-09T12:33:44.160Z,86.20
2023-05-09T12:36:12.663Z,86.20
2023-05-09T12:38:40.254Z,86.50
2023-05-09T12:41:18.857Z,86.50
2023-05-09T12:43:56.392Z,86.60
2023-05-09T12:46:23.519Z,86.80
2023-05-09T12:48:51.005Z,87.00
2023-05-09T12:51:22.340Z,87.20
2023-05-09T12:53:49.410Z,87.40
2023-05-09T12:56:23.116Z,87.30
2023-05-09T12:58:50.584Z,87.40
2023-05-09T13:01:18.488Z,87.50
2023-05-09T13:03:51.067Z,87.60
2023-05-09T13:06:18.066Z,87.60
2023-05-09T13:08:56.732Z,87.50
2023-05-09T13:11:24.860Z,87.40
2023-05-09T13:13:51.756Z,87.50
2023-05-09T13:16:18.585Z,87.70
2023-05-09T13:18:45.609Z,87.60
2023-05-09T13:21:12.731Z,87.60
2023-05-09T13:23:39.560Z,87.70
2023-05-09T13:26:06.377Z,87.80
2023-05-09T13:28:33.214Z,87.90
2023-05-09T13:31:01.408Z,87.90
2023-05-09T13:33:28.469Z,87.50
2023-05-09T13:35:55.510Z,87.70
2023-05-09T13:38:22.394Z,87.80
2023-05-09T13:40:49.566Z,87.80
2023-05-09T13:43:16.360Z,87.60
2023-05-09T13:45:43.217Z,87.60
2023-05-09T13:48:10.184Z,87.40
2023-05-09T13:50:37.085Z,87.80
2023-05-09T13:53:04.198Z,87.20
2023-05-09T13:55:31.150Z,87.20
2023-05-09T13:57:58.047Z,87.10
2023-05-09T14:00:26.653Z,87.20
2023-05-09T14:02:53.678Z,87.20
2023-05-09T14:05:20.536Z,87.20
2023-05-09T14:07:47.783Z,87.30
2023-05-09T14:10:15.510Z,87.60
2023-05-09T14:12:44.580Z,87.60
2023-05-09T14:15:11.668Z,87.80
2023-05-09T14:17:39.685Z,87.50
2023-05-09T14:20:07.402Z,87.30
2023-05-09T14:22:34.203Z,87.40
2023-05-09T14:25:01.223Z,87.50
2023-05-09T14:27:28.079Z,87.70
2023-05-09T14:29:55.146Z,87.80
2023-05-09T14:32:22.034Z,87.90
2023-05-09T14:34:51.836Z,88.20
2023-05-09T14:37:19.093Z,87.80
2023-05-09T14:39:47.069Z,87.70
2023-05-09T14:42:14.527Z,87.60
2023-05-09T14:44:41.962Z,87.90
2023-05-09T14:47:10.749Z,88.00
2023-05-09T14:49:40.117Z,87.70
2023-05-09T14:52:06.974Z,88.10
2023-05-09T14:54:34.776Z,88.00
2023-05-09T14:57:04.534Z,87.90
2023-05-09T14:59:32.328Z,87.80
2023-05-09T15:01:59.758Z,87.90
2023-05-09T15:04:31.190Z,87.80
2023-05-09T15:06:59.115Z,87.90
2023-05-09T15:09:26.465Z,88.00
2023-05-09T15:11:53.641Z,88.20
2023-05-09T15:14:20.682Z,88.10
2023-05-09T15:16:48.303Z,88.10
2023-05-09T15:19:15.129Z,88.20
2023-05-09T15:21:41.868Z,88.30
2023-05-09T15:24:08.686Z,88.90
2023-05-09T15:26:35.464Z,88.40
2023-05-09T15:29:02.449Z,88.20
2023-05-09T15:31:33.540Z,88.30
2023-05-09T15:34:01.421Z,88.30
2023-05-09T15:36:32.351Z,88.30
2023-05-09T15:38:59.549Z,88.30
2023-05-09T15:41:26.344Z,88.30
2023-05-09T15:43:53.164Z,88.30
2023-05-09T15:46:20.273Z,88.40
2023-05-09T15:48:47.720Z,88.40
2023-05-09T15:51:14.749Z,88.20
2023-05-09T15:53:42.151Z,88.00
2023-05-09T15:56:09.501Z,87.70
2023-05-09T15:58:36.893Z,87.80
2023-05-09T16:01:06.222Z,87.70
2023-05-09T16:03:33.396Z,87.70
2023-05-09T16:06:00.825Z,87.70
2023-05-09T16:08:27.778Z,87.90
2023-05-09T16:10:54.764Z,87.90
2023-05-09T16:13:21.576Z,87.70
2023-05-09T16:15:50.374Z,87.60
2023-05-09T16:18:17.490Z,87.60
2023-05-09T16:20:44.450Z,87.60
2023-05-09T16:23:11.891Z,87.50
2023-05-09T16:25:38.940Z,87.60
2023-05-09T16:28:09.608Z,87.60
2023-05-09T16:30:36.563Z,87.60
2023-05-09T16:33:03.890Z,87.80
2023-05-09T16:35:30.769Z,87.70
2023-05-09T16:37:57.742Z,87.70
2023-05-09T16:40:24.716Z,87.70
2023-05-09T16:42:51.501Z,87.70
2023-05-09T16:45:18.408Z,87.80
2023-05-09T16:47:45.427Z,87.90
2023-05-09T16:50:12.293Z,87.80
2023-05-09T16:52:39.128Z,87.80
2023-05-09T16:55:06.839Z,87.80
2023-05-09T16:57:33.647Z,87.80
2023-05-09T17:00:00.547Z,88.00
2023-05-09T17:02:27.565Z,88.00
2023-05-09T17:04:54.869Z,88.10
2023-05-09T17:07:22.230Z,88.10
2023-05-09T17:09:49.888Z,88.10
2023-05-09T17:12:18.500Z,88.10
2023-05-09T17:14:46.908Z,88.20
2023-05-09T17:17:14.812Z,88.20
2023-05-09T17:19:41.896Z,88.20
2023-05-09T17:22:09.068Z,88.20
2023-05-09T17:24:35.874Z,88.40
2023-05-09T17:27:04.559Z,88.40
2023-05-09T17:29:32.661Z,88.60
2023-05-09T17:32:02.413Z,88.50
2023-05-09T17:34:29.647Z,88.50
2023-05-09T17:36:56.795Z,88.50
2023-05-09T17:39:24.135Z,88.50
2023-05-09T17:41:51.145Z,88.50
2023-05-09T17:44:17.920Z,88.60
2023-05-09T17:46:44.860Z,88.60
2023-05-09T17:49:14.106Z,88.80
2023-05-09T17:51:41.327Z,88.80
2023-05-09T17:54:08.327Z,88.80
2023-05-09T17:56:35.677Z,88.80
2023-05-09T17:59:03.027Z,88.80
2023-05-09T18:01:29.885Z,89.00
2023-05-09T18:03:57.357Z,88.90
2023-05-09T18:06:24.280Z,89.00
2023-05-09T18:08:51.142Z,88.90
2023-05-09T18:11:18.084Z,88.80
2023-05-09T18:13:44.780Z,88.80
2023-05-09T18:16:11.736Z,88.90
2023-05-09T18:18:39.048Z,89.00
2023-05-09T18:21:07.973Z,89.10
2023-05-09T18:23:34.990Z,89.10
2023-05-09T18:26:02.001Z,89.30
2023-05-09T18:28:28.938Z,89.30
2023-05-09T18:30:58.448Z,89.20
2023-05-09T18:33:27.448Z,89.20
2023-05-09T18:35:55.330Z,89.20
2023-05-09T18:38:22.866Z,89.30
2023-05-09T18:40:51.807Z,89.20
2023-05-09T18:43:20.692Z,89.30
2023-05-09T18:45:48.544Z,89.50
2023-05-09T18:48:16.728Z,89.30
2023-05-09T18:50:43.587Z,89.30
2023-05-09T18:53:10.395Z,89.30
2023-05-09T18:55:37.210Z,89.30
2023-05-09T18:58:04.228Z,89.40
2023-05-09T19:00:31.052Z,89.60
2023-05-09T19:02:58.108Z,89.50
2023-05-09T19:05:26.168Z,89.70
2023-05-09T19:07:54.284Z,89.70
2023-05-09T19:10:21.338Z,89.60
2023-05-09T19:12:49.565Z,89.70
2023-05-09T19:15:16.409Z,89.80
2023-05-09T19:17:43.618Z,89.60
2023-05-09T19:20:11.606Z,89.80
2023-05-09T19:22:41.292Z,89.90
2023-05-09T19:25:08.544Z,90.10
2023-05-09T19:27:35.369Z,89.80
2023-05-09T19:30:04.393Z,89.70
2023-05-09T19:32:31.777Z,89.70
2023-05-09T19:34:58.892Z,89.80
2023-05-09T19:37:25.835Z,89.80
2023-05-09T19:39:52.923Z,90.00
2023-05-09T19:42:19.780Z,89.90
2023-05-09T19:44:46.957Z,89.90
2023-05-09T19:47:13.867Z,90.00
2023-05-09T19:49:42.549Z,90.00
2023-05-09T19:52:09.338Z,90.00
2023-05-09T19:54:36.226Z,90.00
2023-05-09T19:57:06.627Z,90.00
2023-05-09T19:59:33.515Z,90.00
2023-05-09T20:02:00.508Z,90.20
2023-05-09T20:04:27.596Z,90.00
2023-05-09T20:06:54.451Z,90.00
2023-05-09T20:09:21.299Z,90.00
2023-05-09T20:11:48.518Z,90.00
2023-05-09T20:14:15.317Z,90.00
2023-05-09T20:16:43.830Z,89.90
2023-05-09T20:19:14.743Z,89.60
2023-05-09T20:21:41.729Z,89.60
2023-05-09T20:24:08.845Z,89.50
2023-05-09T20:26:36.022Z,89.40
2023-05-09T20:29:04.939Z,89.30
2023-05-09T20:31:32.314Z,89.40
2023-05-09T20:33:59.280Z,89.40
2023-05-09T20:36:28.046Z,89.30
2023-05-09T20:38:57.640Z,89.50
2023-05-09T20:41:25.412Z,89.50
2023-05-09T20:43:53.981Z,89.50
2023-05-09T20:46:21.781Z,89.60
2023-05-09T20:48:48.801Z,89.60
2023-05-09T20:51:15.620Z,89.40
2023-05-09T20:53:42.483Z,89.70
2023-05-09T20:56:09.318Z,89.90
2023-05-09T20:58:36.152Z,89.80
2023-05-09T21:01:03.126Z,89.90
2023-05-09T21:03:29.996Z,90.00
2023-05-09T21:05:58.893Z,90.10
2023-05-09T21:08:25.962Z,90.10
2023-05-09T21:10:52.886Z,90.00
2023-05-09T21:13:19.982Z,90.10
2023-05-09T21:15:50.161Z,90.10
2023-05-09T21:18:17.303Z,90.20
2023-05-09T21:20:45.125Z,90.20
2023-05-09T21:23:12.217Z,90.10
2023-05-09T21:25:39.328Z,90.10
2023-05-09T21:28:06.215Z,90.20
2023-05-09T21:30:33.062Z,90.20
2023-05-09T21:33:00.259Z,90.20
2023-05-09T21:35:27.044Z,90.20
2023-05-09T21:37:54.204Z,90.20
2023-05-09T21:40:21.295Z,90.50
2023-05-09T21:42:48.178Z,90.20
2023-05-09T21:45:15.095Z,90.20
2023-05-09T21:47:42.264Z,90.10
2023-05-09T21:50:09.597Z,90.20
2023-05-09T21:52:36.435Z,90.10
2023-05-09T21:55:03.289Z,90.20
2023-05-09T21:57:30.422Z,90.20
2023-05-09T22:00:01.303Z,90.30
2023-05-09T22:02:29.271Z,90.30
2023-05-09T22:04:56.383Z,90.40
2023-05-09T22:07:24.934Z,90.30
2023-05-09T22:09:51.818Z,90.30
2023-05-09T22:12:18.698Z,90.30
2023-05-09T22:14:55.858Z,90.30
2023-05-09T22:17:24.482Z,90.30
2023-05-09T22:19:51.267Z,90.30
2023-05-09T22:22:18.048Z,90.30
2023-05-09T22:24:44.890Z,90.30
2023-05-09T22:27:11.790Z,90.40
2023-05-09T22:29:38.851Z,90.40
2023-05-09T22:32:08.336Z,90.30
2023-05-09T22:34:35.447Z,90.30
2023-05-09T22:37:02.249Z,90.30
2023-05-09T22:39:29.527Z,90.30
2023-05-09T22:41:56.445Z,90.30
2023-05-09T22:44:23.451Z,90.20
2023-05-09T22:46:50.428Z,90.20
2023-05-09T22:49:17.527Z,90.30
2023-05-09T22:51:44.468Z,90.20
2023-05-09T22:54:11.618Z,90.20
2023-05-09T22:56:38.442Z,90.20
2023-05-09T22:59:05.569Z,90.20
2023-05-09T23:01:32.722Z,90.20
2023-05-09T23:03:59.566Z,90.20
2023-05-09T23:06:26.388Z,90.20
2023-05-09T23:08:53.237Z,90.20
2023-05-09T23:11:21.562Z,90.20
2023-05-09T23:13:48.769Z,90.20
2023-05-09T23:16:16.247Z,90.30
2023-05-09T23:18:43.059Z,90.20
2023-05-09T23:21:10.098Z,90.20
2023-05-09T23:23:37.126Z,90.50
2023-05-09T23:26:03.838Z,90.20
2023-05-09T23:28:30.563Z,90.20
2023-05-09T23:30:57.396Z,90.20
2023-05-09T23:33:24.183Z,90.20
2023-05-09T23:35:51.178Z,90.20
2023-05-09T23:38:18.018Z,90.20
2023-05-09T23:40:46.176Z,90.20
2023-05-09T23:43:14.008Z,90.20
2023-05-09T23:45:41.042Z,90.20
2023-05-09T23:48:07.992Z,90.20
2023-05-09T23:50:35.073Z,90.20
2023-05-09T23:53:04.817Z,90.20
2023-05-09T23:55:33.645Z,90.20
2023-05-09T23:58:03.464Z,90.30
